Time;durP1;ratioP1;P1;durP2;ratioP2;P2;SDS_P1;SDS_P2;PMS_P1;PMS_P2;Temp;Humidity;BMP_temperature;BMP_pressure;BME280_temperature;BME280_humidity;BME280_pressure;Samples;Min_cycle;Max_cycle;Signal;HPM_P1;HPM_P2
2022/06/22 00:00:00;;;;;;;12.60;4.20;;;;;;;11.36;100.00;99440.34;104962;1274;60559;-69
2022/06/22 00:03:07;;;;;;;12.00;4.70;;;;;;;11.33;99.97;99439.17;104925;1274;59801;-68
2022/06/22 00:05:55;;;;;;;12.20;4.70;;;;;;;11.30;99.98;99438.52;105221;1274;73790;-70
2022/06/22 00:08:46;;;;;;;11.00;3.80;;;;;;;11.27;100.00;99439.86;104918;1274;67722;-70
2022/06/22 00:11:35;;;;;;;10.30;4.10;;;;;;;11.24;100.00;99436.88;104931;1274;72406;-69
2022/06/22 00:14:50;;;;;;;13.00;4.70;;;;;;;11.21;100.00;99434.36;104887;1274;59242;-70
2022/06/22 00:17:38;;;;;;;11.20;4.80;;;;;;;11.17;100.00;99440.42;104951;1274;61430;-70
2022/06/22 00:20:32;;;;;;;14.00;5.80;;;;;;;11.14;100.00;99441.95;105064;1274;71688;-68
2022/06/22 00:23:45;;;;;;;13.20;4.70;;;;;;;11.11;100.00;99437.94;105088;1274;69041;-72
2022/06/22 00:26:36;;;;;;;14.70;5.30;;;;;;;11.09;100.00;99435.30;104890;1273;73217;-68
2022/06/22 00:29:36;;;;;;;10.80;4.50;;;;;;;11.06;100.00;99430.19;105212;1274;59646;-70
2022/06/22 00:32:29;;;;;;;11.60;5.00;;;;;;;11.05;100.00;99425.35;104877;1274;59295;-71
2022/06/22 00:35:44;;;;;;;13.60;4.70;;;;;;;11.03;100.00;99422.44;104899;1274;71730;-68
2022/06/22 00:38:32;;;;;;;12.80;4.40;;;;;;;11.01;100.00;99423.86;104958;1273;69379;-66
2022/06/22 00:41:25;;;;;;;12.60;4.80;;;;;;;11.00;100.00;99425.98;104830;1274;74215;-69
2022/06/22 00:44:15;;;;;;;11.40;4.50;;;;;;;10.96;100.00;99422.38;105017;1274;59518;-67
2022/06/22 00:47:10;;;;;;;13.30;4.90;;;;;;;10.95;100.00;99434.05;104987;1274;59441;-69
2022/06/22 00:50:28;;;;;;;10.50;4.30;;;;;;;10.93;100.00;99434.56;104935;1274;71398;-70
2022/06/22 00:53:40;;;;;;;10.80;4.30;;;;;;;10.91;100.00;99431.71;105311;1274;69606;-68
2022/06/22 00:56:50;;;;;;;12.30;4.50;;;;;;;10.89;100.00;99423.02;105070;1274;74200;-68
2022/06/22 01:00:04;;;;;;;12.60;5.00;;;;;;;10.89;100.00;99424.45;104912;1274;59537;-68
2022/06/22 01:03:05;;;;;;;11.50;4.80;;;;;;;10.89;100.00;99425.52;105262;1274;59344;-67
2022/06/22 01:06:25;;;;;;;9.50;4.30;;;;;;;10.89;100.00;99423.55;105320;1274;73206;-70
2022/06/22 01:09:28;;;;;;;13.20;5.00;;;;;;;10.88;100.00;99426.14;105016;1274;65754;-69
2022/06/22 01:12:33;;;;;;;11.40;5.00;;;;;;;10.88;100.00;99422.58;105243;1274;74316;-68
2022/06/22 01:15:33;;;;;;;13.40;5.20;;;;;;;10.88;100.00;99419.02;104811;1274;60618;-68
2022/06/22 01:18:37;;;;;;;12.10;4.90;;;;;;;10.86;100.00;99416.68;104828;1274;59409;-68
2022/06/22 01:21:39;;;;;;;11.30;4.60;;;;;;;10.87;100.00;99421.81;105110;1274;72773;-68
2022/06/22 01:25:05;;;;;;;11.40;4.20;;;;;;;10.86;100.00;99416.15;105028;1274;66937;-68
2022/06/22 01:27:53;;;;;;;11.80;5.10;;;;;;;10.88;100.00;99422.00;105043;1274;72636;-68
2022/06/22 01:30:48;;;;;;;11.70;4.50;;;;;;;10.88;100.00;99424.86;105010;1273;60703;-68
2022/06/22 01:33:48;;;;;;;12.30;4.70;;;;;;;10.89;100.00;99426.58;105059;1274;59382;-67
2022/06/22 01:36:39;;;;;;;13.30;4.90;;;;;;;10.90;100.00;99425.21;105121;1274;73888;-68
2022/06/22 01:39:27;;;;;;;14.00;4.80;;;;;;;10.89;100.00;99418.33;104883;1273;69117;-67
2022/06/22 01:42:40;;;;;;;12.70;4.80;;;;;;;10.91;100.00;99417.04;104871;1274;73165;-68
2022/06/22 01:46:09;;;;;;;13.10;4.60;;;;;;;10.91;100.00;99424.79;104888;1274;59624;-64
2022/06/22 01:49:06;;;;;;;10.80;4.30;;;;;;;10.92;100.00;99429.70;104927;1274;61930;-69
2022/06/22 01:52:15;;;;;;;8.50;3.90;;;;;;;10.93;100.00;99421.48;104802;1274;72748;-72
2022/06/22 01:55:28;;;;;;;11.10;4.40;;;;;;;10.92;100.00;99424.02;104907;1274;67605;-68
2022/06/22 01:58:18;;;;;;;11.40;4.80;;;;;;;10.93;100.00;99428.52;105054;1273;73314;-68
2022/06/22 02:01:20;;;;;;;8.80;3.70;;;;;;;10.96;100.00;99427.27;105104;1274;59855;-70
2022/06/22 02:04:40;;;;;;;11.80;4.50;;;;;;;10.98;100.00;99427.71;105116;1273;59296;-67
2022/06/22 02:07:46;;;;;;;10.70;4.10;;;;;;;11.01;100.00;99431.16;104976;1274;73864;-68
2022/06/22 02:10:49;;;;;;;13.10;4.10;;;;;;;11.03;100.00;99432.42;105242;1274;68188;-67
2022/06/22 02:13:54;;;;;;;10.30;4.50;;;;;;;11.04;100.00;99428.81;106757;1274;73473;-67
2022/06/22 02:17:12;;;;;;;12.40;4.00;;;;;;;11.05;100.00;99426.71;106702;1274;60131;-66
2022/06/22 02:20:18;;;;;;;12.30;4.60;;;;;;;11.06;100.00;99421.64;106173;1274;59287;-67
2022/06/22 02:23:34;;;;;;;12.00;4.40;;;;;;;11.07;100.00;99425.28;104960;1274;72978;-68
2022/06/22 02:26:52;;;;;;;10.60;3.60;;;;;;;11.08;100.00;99437.66;105001;1274;69894;-72
2022/06/22 02:29:47;;;;;;;10.30;4.10;;;;;;;11.09;100.00;99441.14;104869;1274;74409;-64
2022/06/22 02:32:45;;;;;;;10.80;4.60;;;;;;;11.10;100.00;99441.23;104896;1274;60201;-67
2022/06/22 02:35:34;;;;;;;8.50;4.00;;;;;;;11.11;100.00;99437.60;105171;1274;60486;-67
2022/06/22 02:38:23;;;;;;;13.10;4.20;;;;;;;11.11;100.00;99438.46;105639;1274;73801;-65
2022/06/22 02:44:31;;;;;;;10.30;3.60;;;;;;;11.16;100.00;99443.86;105098;1274;72492;-68
2022/06/22 02:47:44;;;;;;;11.50;3.50;;;;;;;11.19;100.00;99446.66;104827;1274;59409;-67
2022/06/22 02:50:43;;;;;;;12.70;3.60;;;;;;;11.23;100.00;99444.30;104809;1274;61341;-70
2022/06/22 02:53:41;;;;;;;10.50;3.80;;;;;;;11.26;100.00;99450.98;104875;1273;72185;-70
2022/06/22 02:56:39;;;;;;;12.80;4.30;;;;;;;11.29;100.00;99450.69;105122;1272;68622;-67
2022/06/22 02:59:27;;;;;;;9.10;4.10;;;;;;;11.33;100.00;99454.08;105115;1273;74284;-68
2022/06/22 03:02:18;;;;;;;9.10;3.40;;;;;;;11.36;100.00;99460.53;104861;1274;59515;-68
2022/06/22 03:05:07;;;;;;;10.90;3.40;;;;;;;11.39;100.00;99460.43;105362;1274;61352;-70
2022/06/22 03:07:59;;;;;;;14.50;4.00;;;;;;;11.44;100.00;99460.71;104909;1274;72666;-69
2022/06/22 03:10:54;;;;;;;11.40;4.30;;;;;;;11.49;100.00;99459.75;105091;1274;65912;-70
2022/06/22 03:13:56;;;;;;;12.00;3.90;;;;;;;11.53;100.00;99460.42;104961;1274;71770;-70
2022/06/22 03:16:52;;;;;;;8.90;4.10;;;;;;;11.57;100.00;99462.88;104920;1274;61070;-69
2022/06/22 03:19:49;;;;;;;11.90;3.80;;;;;;;11.62;100.00;99462.31;104937;1274;59426;-70
2022/06/22 03:22:49;;;;;;;11.30;3.90;;;;;;;11.67;100.00;99466.06;104959;1274;72882;-70
2022/06/22 03:25:46;;;;;;;10.50;3.60;;;;;;;11.73;100.00;99464.65;104920;1274;67822;-69
2022/06/22 03:28:41;;;;;;;10.40;4.10;;;;;;;11.80;100.00;99464.40;104849;1274;74215;-69
2022/06/22 03:31:51;;;;;;;11.90;3.60;;;;;;;11.86;100.00;99456.23;104782;1274;60551;-68
2022/06/22 03:34:46;;;;;;;11.10;4.00;;;;;;;11.93;100.00;99458.58;105758;1273;61666;-70
2022/06/22 03:37:41;;;;;;;8.80;3.80;;;;;;;11.99;100.00;99460.33;105531;1274;69903;-71
2022/06/22 03:40:48;;;;;;;9.00;3.30;;;;;;;12.05;100.00;99457.66;105003;1272;67830;-70
2022/06/22 03:43:49;;;;;;;9.30;3.70;;;;;;;12.12;100.00;99455.59;105178;1274;73504;-72
2022/06/22 03:47:22;;;;;;;12.00;3.80;;;;;;;12.19;100.00;99452.09;105163;1274;59502;-71
2022/06/22 03:50:29;;;;;;;9.90;3.30;;;;;;;12.27;100.00;99448.82;104580;1281;61429;-72
2022/06/22 03:53:28;;;;;;;10.10;3.70;;;;;;;12.35;100.00;99448.59;104469;1281;69895;-72
2022/06/22 03:56:33;;;;;;;10.30;3.30;;;;;;;12.42;100.00;99448.77;104321;1281;66855;-72
2022/06/22 03:59:21;;;;;;;9.60;3.50;;;;;;;12.51;100.00;99446.79;104301;1281;74421;-74
2022/06/22 04:02:10;;;;;;;10.60;3.70;;;;;;;12.59;100.00;99447.20;104492;1281;61437;-74
2022/06/22 04:04:59;;;;;;;9.80;3.50;;;;;;;12.69;100.00;99446.95;104198;1281;60788;-72
2022/06/22 04:07:48;;;;;;;10.00;3.30;;;;;;;12.79;100.00;99451.94;104321;1281;74007;-73
2022/06/22 04:10:58;;;;;;;10.50;3.10;;;;;;;12.90;100.00;99459.89;104191;1282;67578;-75
2022/06/22 04:13:51;;;;;;;9.40;3.60;;;;;;;13.04;100.00;99466.58;104802;1281;73014;-74
2022/06/22 04:16:45;;;;;;;9.60;3.50;;;;;;;13.16;99.86;99464.71;104410;1281;59479;-76
2022/06/22 04:19:46;;;;;;;10.50;3.30;;;;;;;13.29;99.12;99461.84;104548;1281;59369;-76
2022/06/22 04:22:40;;;;;;;10.50;3.60;;;;;;;13.43;97.77;99462.79;104658;1281;72984;-77
2022/06/22 04:25:38;;;;;;;10.60;2.80;;;;;;;13.63;97.02;99459.02;105192;1274;66708;-77
2022/06/22 04:28:32;;;;;;;8.90;3.00;;;;;;;13.87;95.66;99455.17;105318;1274;73366;-75
2022/06/22 04:31:34;;;;;;;8.80;2.60;;;;;;;14.20;94.27;99460.05;105018;1274;59276;-76
2022/06/22 04:35:02;;;;;;;8.10;2.90;;;;;;;14.58;92.28;99467.03;105405;1272;60541;-73
2022/06/22 04:38:32;;;;;;;9.80;2.70;;;;;;;15.05;90.12;99459.19;105356;1274;72807;-75
2022/06/22 04:41:38;;;;;;;10.10;2.70;;;;;;;15.59;87.36;99460.73;105324;1274;67821;-75
2022/06/22 04:44:46;;;;;;;9.00;2.80;;;;;;;16.12;83.78;99460.70;104929;1274;74111;-73
2022/06/22 04:47:35;;;;;;;9.30;2.30;;;;;;;16.69;80.50;99467.98;105142;1273;59296;-74
2022/06/22 04:50:25;;;;;;;7.70;2.60;;;;;;;17.28;76.72;99467.56;105210;1274;59343;-74
2022/06/22 04:53:39;;;;;;;8.80;2.30;;;;;;;17.92;74.47;99467.30;105034;1274;73871;-74
2022/06/22 04:56:36;;;;;;;7.90;2.30;;;;;;;18.67;70.94;99472.93;105270;1274;66794;-73
2022/06/22 04:59:25;;;;;;;7.30;2.20;;;;;;;19.30;67.23;99477.79;105148;1274;74306;-74
2022/06/22 05:02:17;;;;;;;8.30;2.20;;;;;;;19.86;64.68;99476.17;105149;1274;59301;-75
2022/06/22 05:05:19;;;;;;;12.00;2.60;;;;;;;20.41;62.33;99476.05;105082;1274;62120;-76
2022/06/22 05:08:16;;;;;;;8.00;2.00;;;;;;;20.90;59.34;99478.11;105007;1274;72512;-74
2022/06/22 05:11:27;;;;;;;8.20;1.90;;;;;;;21.45;58.17;99483.18;106077;1272;67664;-74
2022/06/22 05:14:23;;;;;;;7.30;2.10;;;;;;;21.97;54.37;99479.07;105402;1273;75826;-75
2022/06/22 05:17:25;;;;;;;6.50;1.80;;;;;;;22.53;53.37;99475.94;105243;1274;59389;-75
2022/06/22 05:20:29;;;;;;;8.40;2.20;;;;;;;23.23;51.08;99472.89;105062;1274;611553;-74
2022/06/22 05:23:20;;;;;;;6.90;1.90;;;;;;;23.97;48.73;99471.24;105274;1274;73449;-79
2022/06/22 05:26:10;;;;;;;6.40;2.00;;;;;;;24.60;46.08;99465.20;105013;1274;66514;-76
2022/06/22 05:29:06;;;;;;;6.60;1.90;;;;;;;25.24;44.89;99466.71;106572;1274;74381;-73
2022/06/22 05:32:00;;;;;;;7.60;1.60;;;;;;;25.99;42.53;99468.30;105980;1274;59307;-76
2022/06/22 05:34:54;;;;;;;7.40;1.90;;;;;;;26.70;40.82;99458.70;105085;1274;60895;-75
2022/06/22 05:37:50;;;;;;;8.70;1.70;;;;;;;27.31;38.88;99461.41;105110;1274;73815;-74
2022/06/22 05:40:40;;;;;;;6.50;1.60;;;;;;;27.86;37.43;99459.98;105094;1274;68150;-76
2022/06/22 05:43:28;;;;;;;7.00;1.60;;;;;;;28.04;36.32;99453.52;105040;1272;72488;-79
2022/06/22 05:46:15;;;;;;;7.60;1.60;;;;;;;28.42;35.85;99454.02;104965;1273;59414;-76
2022/06/22 05:49:04;;;;;;;8.30;1.70;;;;;;;28.82;35.06;99458.59;105151;1273;59413;-75
2022/06/22 05:52:21;;;;;;;7.90;1.60;;;;;;;29.34;34.71;99460.29;104991;1273;72455;-75
2022/06/22 05:55:21;;;;;;;14.10;7.90;;;;;;;29.81;33.64;99462.94;105360;1272;67798;-70
2022/06/22 05:58:38;;;;;;;8.70;2.10;;;;;;;30.29;32.50;99461.58;105241;1274;72622;-77
2022/06/22 06:01:41;;;;;;;7.40;1.70;;;;;;;30.80;31.94;99451.77;105017;1274;59428;-72
2022/06/22 06:04:51;;;;;;;9.60;4.30;;;;;;;31.07;31.34;99456.73;105708;1274;59378;-73
2022/06/22 06:08:04;;;;;;;7.00;1.70;;;;;;;30.91;30.57;99464.28;105046;1274;72295;-71
2022/06/22 06:10:53;;;;;;;6.50;1.50;;;;;;;30.44;31.03;99460.47;105196;1273;66867;-71
2022/06/22 06:13:49;;;;;;;5.80;1.40;;;;;;;30.22;31.08;99468.05;105083;1274;74644;-71
2022/06/22 06:16:49;;;;;;;8.70;2.60;;;;;;;30.35;30.48;99462.27;105138;1274;59678;-71
2022/06/22 06:19:42;;;;;;;7.10;1.60;;;;;;;30.18;30.58;99464.78;105283;1274;59377;-72
2022/06/22 06:22:31;;;;;;;6.50;1.50;;;;;;;30.74;30.03;99457.51;105146;1274;72913;-72
2022/06/22 06:29:05;;;;;;;8.90;1.60;;;;;;;32.11;28.61;99458.34;105193;1273;71563;-71
2022/06/22 06:31:53;;;;;;;7.10;1.70;;;;;;;32.63;27.54;99469.55;105301;1274;59516;-73
2022/06/22 06:35:35;;;;;;;9.10;2.00;;;;;;;32.89;27.01;99472.67;105419;1273;60947;-72
2022/06/22 06:39:21;;;;;;;7.20;1.50;;;;;;;32.59;26.86;99484.48;104582;1279;72582;-74
2022/06/22 06:42:28;;;;;;;8.20;1.70;;;;;;;32.55;26.62;99479.31;104078;1287;69078;-72
2022/06/22 06:45:22;;;;;;;8.70;2.00;;;;;;;31.51;27.87;99484.81;104088;1287;71762;-72
2022/06/22 06:48:25;;;;;;;7.20;1.70;;;;;;;30.68;29.21;99490.45;104023;1287;59369;-71
2022/06/22 06:51:17;;;;;;;7.10;1.80;;;;;;;30.10;30.25;99491.13;103997;1287;60013;-69
2022/06/22 06:54:25;;;;;;;6.90;1.60;;;;;;;29.93;30.38;99500.45;103942;1287;73584;-74
2022/06/22 06:57:19;;;;;;;7.60;2.00;;;;;;;28.93;31.62;99501.32;103824;1287;67984;-73
2022/06/22 07:00:12;;;;;;;7.00;1.80;;;;;;;28.75;32.34;99496.11;104052;1287;73103;-73
2022/06/22 07:03:00;;;;;;;7.80;2.40;;;;;;;28.64;33.20;99496.20;103757;1287;59504;-75
2022/06/22 07:05:50;;;;;;;8.10;2.30;;;;;;;29.36;32.05;99499.11;104118;1287;60742;-73
2022/06/22 07:08:51;;;;;;;6.60;1.60;;;;;;;28.27;33.14;99506.21;103777;1287;72500;-73
2022/06/22 07:11:55;;;;;;;8.60;2.30;;;;;;;28.12;34.02;99507.90;103875;1287;68062;-71
2022/06/22 07:14:44;;;;;;;7.30;2.10;;;;;;;29.72;32.40;99499.90;103969;1281;72885;-72
2022/06/22 07:17:33;;;;;;;7.50;2.00;;;;;;;31.21;30.02;99494.84;105121;1273;59377;-72
2022/06/22 07:20:31;;;;;;;7.20;1.70;;;;;;;31.80;28.11;99497.13;104931;1274;62133;-73
2022/06/22 07:23:28;;;;;;;10.00;2.10;;;;;;;30.43;29.89;99501.78;105018;1272;72226;-74
2022/06/22 07:26:41;;;;;;;6.70;1.40;;;;;;;29.80;31.11;99500.35;105003;1273;69771;-74
2022/06/22 07:29:48;;;;;;;7.40;1.70;;;;;;;30.12;30.79;99499.30;105131;1274;71642;-73
2022/06/22 07:32:57;;;;;;;8.70;2.20;;;;;;;31.43;29.19;99496.49;105083;1274;59311;-73
2022/06/22 07:35:56;;;;;;;8.60;2.20;;;;;;;32.24;27.14;99493.09;105307;1272;59328;-73
2022/06/22 07:38:54;;;;;;;8.80;1.80;;;;;;;32.92;26.75;99488.79;105405;1274;72971;-73
2022/06/22 07:41:42;;;;;;;7.00;1.60;;;;;;;33.67;26.29;99494.09;105166;1274;66526;-72
2022/06/22 07:44:33;;;;;;;7.30;1.40;;;;;;;33.64;25.62;99494.05;105086;1274;72657;-73
2022/06/22 07:47:43;;;;;;;6.20;1.70;;;;;;;32.60;26.32;99502.55;105197;1273;59308;-73
2022/06/22 07:50:38;;;;;;;7.40;1.50;;;;;;;32.91;26.13;99502.54;105105;1273;59380;-73
2022/06/22 07:53:57;;;;;;;7.20;1.60;;;;;;;33.69;25.50;99496.41;104935;1272;72225;-77
2022/06/22 07:56:53;;;;;;;7.70;1.50;;;;;;;34.66;24.86;99503.30;105105;1273;67031;-74
2022/06/22 07:59:56;;;;;;;7.10;1.60;;;;;;;34.18;25.08;99496.50;105375;1274;72762;-75
2022/06/22 08:03:10;;;;;;;9.40;1.60;;;;;;;32.19;26.91;99498.44;105378;1272;59448;-75
2022/06/22 08:06:08;;;;;;;8.00;1.70;;;;;;;30.21;29.58;99511.80;106321;1272;60280;-74
2022/06/22 08:09:04;;;;;;;7.10;2.00;;;;;;;28.58;32.10;99507.95;105534;1274;73613;-73
2022/06/22 08:12:29;;;;;;;8.10;2.00;;;;;;;28.84;31.94;99507.60;105242;1273;67998;-73
2022/06/22 08:15:20;;;;;;;6.50;1.60;;;;;;;30.23;30.09;99508.73;104984;1273;73087;-70
2022/06/22 08:18:08;;;;;;;9.50;2.10;;;;;;;31.18;28.80;99500.36;105344;1273;59311;-74
2022/06/22 08:20:57;;;;;;;8.10;2.10;;;;;;;31.80;28.42;99498.40;104881;1273;60535;-72
2022/06/22 08:23:45;;;;;;;8.40;2.00;;;;;;;31.69;28.17;99502.66;105191;1274;70554;-74
2022/06/22 08:26:34;;;;;;;7.50;1.50;;;;;;;29.89;29.58;99514.93;105345;1274;66489;-76
2022/06/22 08:29:25;;;;;;;7.70;1.80;;;;;;;29.29;30.86;99509.89;105126;1274;74540;-71
2022/06/22 08:32:32;;;;;;;7.10;1.50;;;;;;;30.02;30.11;99509.31;105208;1273;59387;-72
2022/06/22 08:35:29;;;;;;;6.60;1.50;;;;;;;30.96;28.70;99504.20;104989;1274;62030;-72
2022/06/22 08:38:48;;;;;;;8.90;1.40;;;;;;;31.76;28.04;99502.78;104992;1273;73717;-72
2022/06/22 08:42:23;;;;;;;7.80;2.40;;;;;;;31.77;27.77;99500.42;105346;1274;68783;-73
2022/06/22 08:45:23;;;;;;;7.50;1.50;;;;;;;30.35;29.25;99515.83;105157;1274;70331;-73
2022/06/22 08:48:38;;;;;;;6.90;1.80;;;;;;;29.07;30.19;99522.09;105329;1274;59465;-72
2022/06/22 08:52:08;;;;;;;8.80;1.80;;;;;;;29.31;30.67;99512.25;105171;1274;60592;-70
2022/06/22 08:55:16;;;;;;;6.70;1.70;;;;;;;30.47;29.28;99511.70;105087;1274;70898;-71
2022/06/22 08:58:42;;;;;;;6.80;1.60;;;;;;;31.25;27.87;99500.69;105268;1274;67925;-70
2022/06/22 09:01:52;;;;;;;7.30;1.40;;;;;;;30.15;28.43;99513.20;104920;1274;70451;-70
2022/06/22 09:04:46;;;;;;;7.50;1.60;;;;;;;29.24;29.85;99512.45;105195;1272;59282;-72
2022/06/22 09:07:52;;;;;;;7.50;1.80;;;;;;;29.81;29.51;99519.27;104961;1274;59317;-72
2022/06/22 09:11:07;;;;;;;6.70;1.50;;;;;;;30.71;28.41;99518.82;105127;1272;72909;-70
2022/06/22 09:14:23;;;;;;;7.40;1.50;;;;;;;31.48;27.34;99518.08;104903;1274;66806;-69
2022/06/22 09:17:56;;;;;;;8.40;1.80;;;;;;;31.91;26.70;99527.73;104822;1273;72037;-70
2022/06/22 09:21:09;;;;;;;7.20;1.60;;;;;;;30.49;27.68;99529.09;105040;1273;59298;-70
2022/06/22 09:24:10;;;;;;;7.30;1.80;;;;;;;29.23;29.44;99527.83;105154;1273;60252;-69
2022/06/22 09:27:21;;;;;;;7.80;1.50;;;;;;;29.89;28.97;99532.77;105240;1274;72188;-69
2022/06/22 09:30:50;;;;;;;5.50;1.40;;;;;;;30.91;27.65;99526.63;105101;1273;67411;-68
2022/06/22 09:34:06;;;;;;;7.50;1.80;;;;;;;31.52;26.73;99523.98;105725;1273;72769;-72
2022/06/22 09:37:06;;;;;;;6.20;1.40;;;;;;;30.29;27.94;99533.34;106681;1273;59164;-68
2022/06/22 09:40:25;;;;;;;6.10;1.50;;;;;;;29.02;29.48;99531.23;107044;1274;59288;-70
2022/06/22 09:43:51;;;;;;;7.30;1.50;;;;;;;27.81;30.97;99538.86;106397;1273;71272;-69
2022/06/22 09:47:13;;;;;;;8.10;1.70;;;;;;;27.24;31.87;99540.46;105204;1274;67773;-70
2022/06/22 09:50:16;;;;;;;7.00;2.00;;;;;;;28.28;31.13;99538.56;105030;1274;72608;-70
2022/06/22 09:53:41;;;;;;;5.80;1.50;;;;;;;29.44;29.34;99527.76;105127;1274;59383;-70
2022/06/22 09:57:22;;;;;;;5.50;1.30;;;;;;;28.91;30.11;99538.71;105231;1274;60568;-70
2022/06/22 10:00:45;;;;;;;7.20;1.60;;;;;;;27.62;31.59;99546.09;104727;1276;74057;-70
2022/06/22 10:04:30;;;;;;;8.40;1.70;;;;;;;26.70;32.77;99548.52;105029;1276;66837;-71
2022/06/22 10:07:55;;;;;;;6.70;1.90;;;;;;;26.71;33.41;99549.36;104882;1276;71637;-71
2022/06/22 10:11:17;;;;;;;8.00;2.50;;;;;;;28.25;31.80;99550.19;104939;1276;59388;-73
2022/06/22 10:14:31;;;;;;;6.40;1.80;;;;;;;29.84;28.40;99549.40;105146;1276;60591;-75
2022/06/22 10:17:27;;;;;;;6.00;1.60;;;;;;;30.56;27.68;99545.08;104992;1276;70971;-71
2022/06/22 10:20:59;;;;;;;7.30;1.80;;;;;;;29.80;28.71;99545.14;104800;1276;68125;-71
2022/06/22 10:24:31;;;;;;;7.10;1.60;;;;;;;28.72;29.97;99555.50;104777;1277;71394;-69
2022/06/22 10:27:43;;;;;;;7.00;1.90;;;;;;;27.84;31.33;99554.70;104925;1276;59385;-72
2022/06/22 10:30:55;;;;;;;6.50;1.40;;;;;;;28.31;30.89;99552.35;104492;1273;61454;-75
2022/06/22 10:34:13;;;;;;;6.50;1.50;;;;;;;27.59;31.52;99551.45;105009;1273;71208;-70
2022/06/22 10:37:14;;;;;;;5.90;1.40;;;;;;;26.74;32.57;99554.39;105061;1271;69986;-71
2022/06/22 10:47:44;;;;;;;6.20;1.80;;;;;;;28.19;30.78;99548.16;104906;1281;60015;-70
2022/06/22 10:51:12;;;;;;;9.90;4.00;;;;;;;28.84;30.18;99547.20;104402;1281;73467;-73
2022/06/22 10:54:59;;;;;;;10.30;4.80;;;;;;;30.25;28.69;99546.81;104552;1280;69538;-70
2022/06/22 10:58:25;;;;;;;7.20;1.70;;;;;;;31.68;26.48;99541.58;103850;1287;72948;-69
2022/06/22 11:02:05;;;;;;;7.70;1.70;;;;;;;32.65;25.36;99543.29;103920;1287;59448;-68
2022/06/22 11:05:46;;;;;;;6.90;1.50;;;;;;;32.45;24.44;99544.35;103860;1287;60308;-70
2022/06/22 11:09:16;;;;;;;7.90;2.60;;;;;;;30.70;26.81;99555.27;103779;1287;73772;-69
2022/06/22 11:12:27;;;;;;;6.30;1.60;;;;;;;29.40;28.90;99550.71;103529;1291;66875;-69
2022/06/22 11:16:09;;;;;;;8.70;1.30;;;;;;;28.42;30.69;99555.00;103302;1291;72790;-69
2022/06/22 11:19:06;;;;;;;6.60;1.60;;;;;;;27.11;31.93;99551.40;103471;1287;61231;-69
2022/06/22 11:22:35;;;;;;;5.80;1.40;;;;;;;26.50;33.01;99555.13;103782;1287;60176;-72
2022/06/22 11:33:49;;;;;;;8.70;1.50;;;;;;;26.74;32.99;99551.64;103904;1280;72765;-72
2022/06/22 11:37:07;;;;;;;6.40;1.60;;;;;;;26.40;33.79;99556.66;104534;1277;59251;-70
2022/06/22 11:41:00;;;;;;;7.90;1.50;;;;;;;26.30;34.38;99563.58;104543;1278;59503;-71
2022/06/22 11:44:24;;;;;;;6.20;1.50;;;;;;;26.25;34.55;99557.29;104788;1278;73372;-70
2022/06/22 11:48:22;;;;;;;6.50;1.50;;;;;;;26.22;34.37;99553.59;105215;1274;67964;-72
2022/06/22 11:51:33;;;;;;;7.10;1.90;;;;;;;25.87;35.13;99546.27;104514;1280;73368;-72
2022/06/22 11:55:27;;;;;;;7.20;1.70;;;;;;;25.69;35.35;99550.25;104608;1281;59426;-68
2022/06/22 11:58:38;;;;;;;6.20;1.50;;;;;;;25.47;36.14;99544.00;103819;1287;60277;-70
2022/06/22 12:01:50;;;;;;;6.30;1.80;;;;;;;25.36;36.39;99538.23;103751;1287;74392;-70
2022/06/22 12:04:40;;;;;;;7.10;1.70;;;;;;;25.36;36.59;99534.11;104070;1287;66561;-70
2022/06/22 12:07:57;;;;;;;7.30;2.60;;;;;;;25.17;36.26;99534.02;104023;1287;74463;-71
2022/06/22 12:11:00;;;;;;;6.70;1.60;;;;;;;24.90;36.64;99530.02;103619;1287;59296;-71
2022/06/22 12:17:46;;;;;;;6.60;1.70;;;;;;;24.80;36.89;99527.50;103781;1287;72130;-72
2022/06/22 12:21:12;;;;;;;8.50;2.30;;;;;;;24.64;37.25;99533.97;104050;1287;70038;-71
2022/06/22 12:24:50;;;;;;;8.20;1.70;;;;;;;24.59;38.06;99535.38;103773;1287;72803;-72
2022/06/22 12:27:49;;;;;;;8.30;2.00;;;;;;;24.63;37.23;99532.26;103929;1284;59360;-71
2022/06/22 12:30:52;;;;;;;6.20;2.00;;;;;;;24.35;38.01;99529.83;104280;1281;60395;-70
2022/06/22 12:33:50;;;;;;;7.20;2.20;;;;;;;24.28;38.19;99536.07;104434;1274;72804;-71
2022/06/22 12:36:55;;;;;;;7.00;2.00;;;;;;;24.36;38.16;99535.40;104921;1273;66566;-70
2022/06/22 12:40:01;;;;;;;8.60;1.90;;;;;;;24.45;38.08;99536.95;104846;1273;71624;-72
2022/06/22 12:43:15;;;;;;;8.80;1.80;;;;;;;24.46;38.54;99532.57;105160;1274;59281;-71
2022/06/22 12:46:54;;;;;;;7.60;1.90;;;;;;;24.38;39.21;99531.84;105182;1273;59336;-72
2022/06/22 12:50:20;;;;;;;10.80;1.80;;;;;;;24.35;39.44;99528.90;105224;1279;72854;-74
2022/06/22 12:53:47;;;;;;;7.80;2.00;;;;;;;24.13;40.45;99528.42;104823;1279;68063;-70
2022/06/22 12:56:56;;;;;;;6.50;2.00;;;;;;;24.13;40.41;99526.83;104668;1279;73262;-71
2022/06/22 12:59:59;;;;;;;6.60;2.00;;;;;;;24.20;40.18;99530.16;105601;1279;59468;-70
2022/06/22 13:02:50;;;;;;;6.20;2.00;;;;;;;24.22;40.63;99521.44;105974;1279;60931;-70
2022/06/22 13:05:39;;;;;;;7.60;1.90;;;;;;;24.13;40.41;99523.53;105107;1279;73006;-71
2022/06/22 13:08:30;;;;;;;7.00;2.20;;;;;;;24.00;40.34;99524.16;105928;1279;66981;-69
2022/06/22 13:11:22;;;;;;;7.50;2.30;;;;;;;23.99;40.93;99522.91;105712;1279;72043;-70
2022/06/22 13:14:49;;;;;;;6.20;2.00;;;;;;;24.04;41.01;99519.33;105779;1280;59177;-73
2022/06/22 13:18:16;;;;;;;7.00;2.00;;;;;;;23.99;41.87;99528.57;105322;1279;60554;-71
2022/06/22 13:21:36;;;;;;;6.70;2.10;;;;;;;23.94;41.48;99529.77;105595;1279;71420;-71
2022/06/22 13:24:41;;;;;;;7.60;2.00;;;;;;;24.05;41.51;99530.27;105896;1279;66825;-72
2022/06/22 13:27:51;;;;;;;6.20;2.30;;;;;;;23.98;41.65;99528.52;106411;1273;72122;-71
2022/06/22 13:30:56;;;;;;;9.60;2.30;;;;;;;24.13;41.63;99528.29;105504;1274;59414;-71
2022/06/22 13:33:52;;;;;;;7.70;2.30;;;;;;;24.18;41.53;99526.42;105224;1273;60275;-73
2022/06/22 13:37:02;;;;;;;7.00;2.30;;;;;;;24.15;41.91;99526.86;105563;1273;72203;-70
2022/06/22 13:40:01;;;;;;;8.00;2.10;;;;;;;24.08;41.87;99525.23;105246;1274;68321;-69
2022/06/22 13:43:10;;;;;;;7.70;2.40;;;;;;;24.12;41.67;99522.61;105820;1274;71077;-71
2022/06/22 13:46:18;;;;;;;6.40;2.10;;;;;;;23.87;41.80;99528.63;104876;1273;59383;-71
2022/06/22 13:49:41;;;;;;;6.20;2.00;;;;;;;23.77;41.62;99535.62;105226;1274;60593;-71
2022/06/22 13:52:44;;;;;;;10.50;2.50;;;;;;;23.85;42.32;99539.88;105466;1272;73686;-70
2022/06/22 13:55:53;;;;;;;9.00;2.40;;;;;;;23.76;43.20;99538.55;104756;1273;69417;-70
2022/06/22 13:58:48;;;;;;;8.40;2.50;;;;;;;23.58;43.94;99533.31;105008;1274;73632;-71
2022/06/22 14:01:44;;;;;;;9.40;2.40;;;;;;;23.51;44.77;99537.90;104968;1274;59402;-73
2022/06/22 14:04:42;;;;;;;8.50;2.60;;;;;;;23.56;44.47;99542.90;105354;1273;59291;-70
2022/06/22 14:07:49;;;;;;;9.90;2.50;;;;;;;23.47;44.76;99535.51;104748;1274;72761;-74
2022/06/22 14:10:45;;;;;;;9.80;2.60;;;;;;;23.42;45.10;99535.31;105006;1273;66710;-71
2022/06/22 14:13:59;;;;;;;9.20;2.60;;;;;;;23.34;45.27;99532.18;104944;1274;73373;-71
2022/06/22 14:16:57;;;;;;;9.40;3.40;;;;;;;23.25;45.78;99527.20;105281;1274;59278;-70
2022/06/22 14:19:59;;;;;;;8.40;2.60;;;;;;;23.28;45.93;99533.59;104996;1272;60435;-74
2022/06/22 14:22:57;;;;;;;10.50;2.90;;;;;;;23.46;46.14;99533.83;105062;1273;71738;-72
2022/06/22 14:26:28;;;;;;;9.20;2.80;;;;;;;23.45;46.01;99538.14;105042;1274;67805;-73
2022/06/22 14:29:50;;;;;;;7.20;2.60;;;;;;;23.29;46.26;99537.01;104863;1274;74445;-70
2022/06/22 14:32:59;;;;;;;8.30;2.80;;;;;;;23.33;46.49;99537.70;105180;1274;59794;-71
2022/06/22 14:36:21;;;;;;;8.60;2.80;;;;;;;23.46;46.64;99534.80;104982;1274;60562;-70
2022/06/22 14:39:23;;;;;;;11.00;3.50;;;;;;;23.22;46.51;99533.86;104808;1274;73299;-71
2022/06/22 14:42:29;;;;;;;9.10;2.90;;;;;;;22.93;47.20;99533.69;104938;1273;69890;-70